Time;durP1;ratioP1;P1;durP2;ratioP2;P2;SDS_P1;SDS_P2;PMS_P1;PMS_P2;Temp;Humidity;BMP_temperature;BMP_pressure;BME280_temperature;BME280_humidity;BME280_pressure;Samples;Min_cycle;Max_cycle;Signal;HPM_P1;HPM_P2
2021/04/16 00:02:20;;;;;;;;;;;;;;;2.67;100.00;101725.81;5092101;28;19977;-69
2021/04/16 00:04:46;;;;;;;;;;;;;;;2.68;100.00;101726.69;5092646;28;19924;-69
2021/04/16 00:07:12;;;;;;;;;;;;;;;2.69;100.00;101725.75;5092544;28;19951;-69
2021/04/16 00:09:38;;;;;;;;;;;;;;;2.68;100.00;101716.81;5092459;28;19924;-69
2021/04/16 00:12:06;;;;;;;;;;;;;;;2.69;100.00;101715.03;5092265;28;19931;-70
2021/04/16 00:14:32;;;;;;;;;;;;;;;2.70;100.00;101718.59;5092098;28;19966;-69
2021/04/16 00:16:58;;;;;;;;;;;;;;;2.70;100.00;101708.75;5092550;28;20019;-70
2021/04/16 00:19:24;;;;;;;;;;;;;;;2.65;100.00;101711.56;5092293;28;20011;-70
2021/04/16 00:21:50;;;;;;;;;;;;;;;2.67;100.00;101714.19;5092069;28;20019;-70
2021/04/16 00:24:16;;;;;;;;;;;;;;;2.68;100.00;101711.47;5092379;28;19931;-70
2021/04/16 00:26:42;;;;;;;;;;;;;;;2.66;100.00;101707.97;5091976;28;20276;-70
2021/04/16 00:29:09;;;;;;;;;;;;;;;2.68;100.00;101710.59;5092214;28;20005;-69
2021/04/16 00:31:35;;;;;;;;;;;;;;;2.66;100.00;101707.97;5091441;28;20345;-69
2021/04/16 00:34:01;;;;;;;;;;;;;;;2.66;100.00;101701.75;5092037;28;20415;-70
2021/04/16 00:36:27;;;;;;;;;;;;;;;2.64;100.00;101699.09;5091636;28;19948;-70
2021/04/16 00:38:53;;;;;;;;;;;;;;;2.64;100.00;101699.09;5092118;28;20295;-69
2021/04/16 00:41:20;;;;;;;;;;;;;;;2.64;100.00;101704.44;5091516;28;19931;-69
2021/04/16 00:43:46;;;;;;;;;;;;;;;2.64;100.00;101706.25;5091776;28;20006;-69
2021/04/16 00:46:19;;;;;;;;;;;;;;;2.64;100.00;101698.22;5091672;28;19924;-70
2021/04/16 00:48:47;;;;;;;;;;;;;;;2.64;100.00;101706.25;5091862;28;20456;-70
2021/04/16 00:51:16;;;;;;;;;;;;;;;2.64;100.00;101698.22;5073142;28;19943;-69
2021/04/16 00:53:42;;;;;;;;;;;;;;;2.64;100.00;101703.59;5091559;28;20364;-69
2021/04/16 00:56:08;;;;;;;;;;;;;;;2.65;100.00;101697.31;5091045;28;19924;-71
2021/04/16 00:58:34;;;;;;;;;;;;;;;2.63;100.00;101694.69;5092028;28;19960;-70
2021/04/16 01:01:01;;;;;;;;;;;;;;;2.63;100.00;101694.69;5091452;28;20360;-69
2021/04/16 01:03:28;;;;;;;;;;;;;;;2.66;100.00;101701.75;5073038;28;20034;-70
2021/04/16 01:05:54;;;;;;;;;;;;;;;2.68;100.00;101690.00;5091341;28;19932;-69
2021/04/16 01:08:20;;;;;;;;;;;;;;;2.70;100.00;101695.34;5091201;28;20007;-70
2021/04/16 01:10:48;;;;;;;;;;;;;;;2.68;100.00;101690.00;5091573;28;19963;-69
2021/04/16 01:13:14;;;;;;;;;;;;;;;2.69;100.00;101685.53;5091464;28;19967;-70
2021/04/16 01:15:40;;;;;;;;;;;;;;;2.69;100.00;101685.53;5091005;28;19993;-69
2021/04/16 01:18:09;;;;;;;;;;;;;;;2.70;100.00;101683.72;5091894;28;19924;-70
2021/04/16 01:20:37;;;;;;;;;;;;;;;2.70;100.00;101689.09;5091980;28;20374;-70
2021/04/16 01:23:05;;;;;;;;;;;;;;;2.72;100.00;101689.94;5092258;28;20017;-69
2021/04/16 01:25:32;;;;;;;;;;;;;;;2.72;100.00;101685.44;5092007;28;19969;-69
2021/04/16 01:27:58;;;;;;;;;;;;;;;2.73;100.00;101694.38;5092019;28;20370;-69
2021/04/16 01:30:25;;;;;;;;;;;;;;;2.72;100.00;101689.94;5073309;28;19971;-69
2021/04/16 01:32:52;;;;;;;;;;;;;;;2.70;100.00;101690.00;5090739;28;20324;-70
2021/04/16 01:35:19;;;;;;;;;;;;;;;2.68;100.00;101690.00;5091067;28;19924;-69
2021/04/16 01:37:45;;;;;;;;;;;;;;;2.72;100.00;101687.25;5091361;28;20414;-69
2021/04/16 01:40:13;;;;;;;;;;;;;;;2.70;100.00;101681.94;5090952;28;19928;-69
2021/04/16 01:42:39;;;;;;;;;;;;;;;2.71;100.00;101681.00;5090937;28;19978;-70
2021/04/16 01:45:06;;;;;;;;;;;;;;;2.71;100.00;101672.94;5090566;28;19960;-70
2021/04/16 01:47:34;;;;;;;;;;;;;;;2.72;100.00;101674.72;5073226;28;19930;-69
2021/04/16 01:49:59;;;;;;;;;;;;;;;2.72;100.00;101676.53;5091220;28;19924;-70
2021/04/16 01:52:27;;;;;;;;;;;;;;;2.71;100.00;101674.75;5090360;28;20376;-69
2021/04/16 01:54:53;;;;;;;;;;;;;;;2.70;100.00;101673.00;5090953;28;19931;-70
2021/04/16 01:57:20;;;;;;;;;;;;;;;2.68;100.00;101668.56;5090638;28;19931;-69
2021/04/16 01:59:48;;;;;;;;;;;;;;;2.66;100.00;101674.94;5091038;28;19941;-69
2021/04/16 02:02:16;;;;;;;;;;;;;;;2.65;100.00;101678.53;5090928;28;20323;-69
2021/04/16 02:04:42;;;;;;;;;;;;;;;2.64;100.00;101677.63;5090519;28;19924;-69
2021/04/16 02:07:08;;;;;;;;;;;;;;;2.63;100.00;101680.38;5090874;28;19932;-69
2021/04/16 02:09:35;;;;;;;;;;;;;;;2.61;100.00;101680.44;5090876;28;20357;-69
2021/04/16 02:12:01;;;;;;;;;;;;;;;2.62;100.00;101679.50;5091403;28;19924;-70
2021/04/16 02:14:28;;;;;;;;;;;;;;;2.63;100.00;101680.38;5094551;28;20310;-71
2021/04/16 02:16:55;;;;;;;;;;;;;;;2.63;100.00;101680.38;5094685;28;19929;-69
2021/04/16 02:19:21;;;;;;;;;;;;;;;2.64;100.00;101676.78;5094386;28;19924;-70
2021/04/16 02:21:48;;;;;;;;;;;;;;;2.64;100.00;101677.63;5094406;28;19931;-70
2021/04/16 02:24:13;;;;;;;;;;;;;;;2.64;100.00;101668.72;5094447;28;20275;-70
2021/04/16 02:26:40;;;;;;;;;;;;;;;2.66;100.00;101670.44;5094525;28;19955;-70
2021/04/16 02:29:06;;;;;;;;;;;;;;;2.67;100.00;101671.28;5076212;28;19924;-70
2021/04/16 02:31:32;;;;;;;;;;;;;;;2.66;100.00;101666.88;5094901;28;19931;-70
2021/04/16 02:33:59;;;;;;;;;;;;;;;2.67;100.00;101665.94;5094072;28;19924;-70
2021/04/16 02:36:25;;;;;;;;;;;;;;;2.69;100.00;101669.47;5093709;28;19932;-70
2021/04/16 02:38:52;;;;;;;;;;;;;;;2.69;100.00;101669.47;5094337;28;19924;-70
2021/04/16 02:41:17;;;;;;;;;;;;;;;2.68;100.00;101668.56;5094505;28;19924;-70
2021/04/16 02:43:43;;;;;;;;;;;;;;;2.70;100.00;101670.31;5094470;28;20299;-70
2021/04/16 02:46:09;;;;;;;;;;;;;;;2.69;100.00;101677.50;5076026;28;20426;-70
2021/04/16 02:48:35;;;;;;;;;;;;;;;2.67;100.00;101660.56;5094216;28;20495;-70
2021/04/16 02:51:02;;;;;;;;;;;;;;;2.67;100.00;101663.25;5094210;28;19924;-70
2021/04/16 02:53:27;;;;;;;;;;;;;;;2.66;100.00;101661.53;5093699;28;19928;-70
2021/04/16 02:55:53;;;;;;;;;;;;;;;2.64;100.00;101664.22;5093914;28;19924;-70
2021/04/16 02:58:19;;;;;;;;;;;;;;;2.57;100.00;101654.66;5093929;28;20349;-71
2021/04/16 03:00:45;;;;;;;;;;;;;;;2.50;100.00;101662.00;5093929;28;19924;-70
2021/04/16 03:03:11;;;;;;;;;;;;;;;2.48;100.00;101661.19;5093884;28;19924;-70
2021/04/16 03:05:36;;;;;;;;;;;;;;;2.46;100.00;101660.38;5093425;28;20307;-70
2021/04/16 03:08:03;;;;;;;;;;;;;;;2.44;100.00;101664.03;5093436;28;19932;-70
2021/04/16 03:10:31;;;;;;;;;;;;;;;2.41;100.00;101672.16;5093328;28;19935;-70
2021/04/16 03:12:56;;;;;;;;;;;;;;;2.40;100.00;101675.78;5093859;28;19985;-70
2021/04/16 03:15:23;;;;;;;;;;;;;;;2.38;100.00;101670.47;5075102;28;19924;-70
2021/04/16 03:17:49;;;;;;;;;;;;;;;2.37;100.00;101674.06;5093525;28;19924;-70
2021/04/16 03:20:15;;;;;;;;;;;;;;;2.36;100.00;101672.28;5093827;28;19924;-70
2021/04/16 03:22:42;;;;;;;;;;;;;;;2.39;100.00;101674.00;5093121;28;20453;-70
2021/04/16 03:25:10;;;;;;;;;;;;;;;2.39;100.00;101674.88;5092199;28;19924;-70
2021/04/16 03:27:35;;;;;;;;;;;;;;;2.40;100.00;101673.94;5092685;28;19924;-70
2021/04/16 03:30:01;;;;;;;;;;;;;;;2.44;100.00;101675.59;5093471;28;19934;-70
2021/04/16 03:32:28;;;;;;;;;;;;;;;2.47;100.00;101683.56;5093020;28;19928;-70
2021/04/16 03:34:55;;;;;;;;;;;;;;;2.48;100.00;101679.94;5093356;28;19993;-70
2021/04/16 03:37:21;;;;;;;;;;;;;;;2.52;100.00;101672.69;5092947;28;19946;-70
2021/04/16 03:39:47;;;;;;;;;;;;;;;2.53;100.00;101674.44;5092999;28;20367;-70
2021/04/16 03:42:13;;;;;;;;;;;;;;;2.56;100.00;101678.84;5092772;28;19924;-70
2021/04/16 03:44:39;;;;;;;;;;;;;;;2.58;100.00;101674.28;5092519;28;19924;-70
2021/04/16 03:47:05;;;;;;;;;;;;;;;2.60;100.00;101680.47;5092603;28;19928;-70
2021/04/16 03:49:31;;;;;;;;;;;;;;;2.62;100.00;101683.97;5093055;28;19928;-70
2021/04/16 03:51:58;;;;;;;;;;;;;;;2.65;100.00;101683.91;5092582;28;19928;-70
2021/04/16 03:54:24;;;;;;;;;;;;;;;2.64;100.00;101685.69;5092863;28;19924;-71
2021/04/16 03:56:50;;;;;;;;;;;;;;;2.65;100.00;101684.75;5092506;28;19974;-70
2021/04/16 03:59:18;;;;;;;;;;;;;;;2.65;100.00;101681.22;5092524;28;20387;-70
2021/04/16 04:01:44;;;;;;;;;;;;;;;2.69;100.00;101674.81;5092465;28;19928;-70
2021/04/16 04:04:10;;;;;;;;;;;;;;;2.68;100.00;101683.78;5092589;28;19931;-70
2021/04/16 04:06:36;;;;;;;;;;;;;;;2.70;100.00;101689.09;5092223;28;19924;-70
2021/04/16 04:09:02;;;;;;;;;;;;;;;2.73;100.00;101681.84;5092291;28;19943;-70
2021/04/16 04:11:28;;;;;;;;;;;;;;;2.73;100.00;101680.97;5073241;28;19928;-70
2021/04/16 04:13:54;;;;;;;;;;;;;;;2.73;100.00;101681.84;5092546;28;20500;-70
2021/04/16 04:16:21;;;;;;;;;;;;;;;2.72;100.00;101680.06;5092177;28;19924;-70
2021/04/16 04:18:47;;;;;;;;;;;;;;;2.72;100.00;101674.72;5092092;28;19931;-71
2021/04/16 04:21:13;;;;;;;;;;;;;;;2.74;100.00;101678.22;5091797;28;19923;-70
2021/04/16 04:23:38;;;;;;;;;;;;;;;2.71;100.00;101678.31;5057383;28;19928;-71
2021/04/16 04:26:04;;;;;;;;;;;;;;;2.71;100.00;101678.31;5091304;28;20388;-70
2021/04/16 04:28:30;;;;;;;;;;;;;;;2.70;100.00;101679.25;5092012;28;19928;-71
2021/04/16 04:30:56;;;;;;;;;;;;;;;2.70;100.00;101679.25;5088403;28;19924;-70
2021/04/16 04:33:23;;;;;;;;;;;;;;;2.72;100.00;101680.06;5091538;28;19924;-70
2021/04/16 04:35:48;;;;;;;;;;;;;;;2.74;100.00;101686.28;5091151;28;19930;-71
2021/04/16 04:38:14;;;;;;;;;;;;;;;2.78;100.00;101690.59;5091660;28;19932;-70
2021/04/16 04:40:40;;;;;;;;;;;;;;;2.81;100.00;101687.81;5091162;28;19963;-70
2021/04/16 04:43:06;;;;;;;;;;;;;;;2.84;100.00;101685.00;5091444;28;19978;-71
2021/04/16 04:45:32;;;;;;;;;;;;;;;2.88;100.00;101680.44;5091545;28;19937;-70
2021/04/16 04:47:58;;;;;;;;;;;;;;;2.92;100.00;101689.25;5091943;28;19974;-71
2021/04/16 04:50:25;;;;;;;;;;;;;;;2.95;100.00;101684.69;5091639;28;19924;-70
2021/04/16 04:52:52;;;;;;;;;;;;;;;2.99;100.00;101694.38;5091702;28;20315;-71
2021/04/16 04:55:20;;;;;;;;;;;;;;;3.02;100.00;101698.75;5091043;28;19924;-71
2021/04/16 04:57:46;;;;;;;;;;;;;;;3.06;100.00;101694.16;5090161;28;19977;-70
2021/04/16 05:00:14;;;;;;;;;;;;;;;3.10;100.00;101695.78;5091217;28;19924;-70
2021/04/16 05:02:39;;;;;;;;;;;;;;;3.15;100.00;101694.72;5091521;28;20311;-70
2021/04/16 05:05:06;;;;;;;;;;;;;;;3.13;100.00;101690.34;5073134;28;19928;-70
2021/04/16 05:07:33;;;;;;;;;;;;;;;3.18;100.00;101683.88;5073336;28;19924;-70
2021/04/16 05:09:59;;;;;;;;;;;;;;;3.21;100.00;101690.94;5091186;28;19931;-70
2021/04/16 05:12:25;;;;;;;;;;;;;;;3.27;100.00;101692.53;5091053;28;19928;-70
2021/04/16 05:14:50;;;;;;;;;;;;;;;3.27;100.00;101685.34;5090565;28;19967;-70
2021/04/16 05:17:16;;;;;;;;;;;;;;;3.33;100.00;101686.97;5090939;28;19924;-71
2021/04/16 05:19:42;;;;;;;;;;;;;;;3.39;100.00;101692.09;5089956;28;20147;-70
2021/04/16 05:22:08;;;;;;;;;;;;;;;3.46;100.00;101687.38;5090665;28;20030;-71
2021/04/16 05:24:35;;;;;;;;;;;;;;;3.56;100.00;101693.31;5090949;28;19928;-71
2021/04/16 05:27:03;;;;;;;;;;;;;;;3.63;100.00;101692.13;5091176;28;19924;-71
2021/04/16 05:29:28;;;;;;;;;;;;;;;3.67;100.00;101691.09;5082787;28;19991;-70
2021/04/16 05:31:55;;;;;;;;;;;;;;;3.76;100.00;101688.06;5072010;28;19924;-70
2021/04/16 05:34:20;;;;;;;;;;;;;;;3.87;100.00;101689.47;5091154;28;19932;-71
2021/04/16 05:36:47;;;;;;;;;;;;;;;3.93;100.00;101683.84;5090981;28;19993;-71
2021/04/16 05:39:13;;;;;;;;;;;;;;;3.97;100.00;101694.44;5090837;28;19952;-71
2021/04/16 05:41:40;;;;;;;;;;;;;;;4.11;100.00;101693.91;5090259;28;19924;-71
2021/04/16 05:44:05;;;;;;;;;;;;;;;4.21;100.00;101697.13;5085579;28;19939;-71
2021/04/16 05:46:31;;;;;;;;;;;;;;;4.27;100.00;101696.00;5077523;28;19928;-71
2021/04/16 05:48:57;;;;;;;;;;;;;;;4.43;100.00;101699.81;5091497;28;19924;-70
2021/04/16 05:51:23;;;;;;;;;;;;;;;4.52;100.00;101696.75;5095036;28;20005;-70
2021/04/16 05:53:49;;;;;;;;;;;;;;;4.59;100.00;101685.78;5094266;28;19932;-71
2021/04/16 05:56:15;;;;;;;;;;;;;;;4.62;100.00;101697.28;5094409;28;19924;-70
2021/04/16 05:58:41;;;;;;;;;;;;;;;4.65;100.00;101697.16;5094685;28;19924;-71
2021/04/16 06:01:09;;;;;;;;;;;;;;;4.79;100.00;101703.78;5094688;28;19977;-71
2021/04/16 06:03:35;;;;;;;;;;;;;;;4.89;100.00;101699.78;5094686;28;19966;-71
2021/04/16 06:06:01;;;;;;;;;;;;;;;5.00;100.00;101700.19;5094642;28;19931;-71
2021/04/16 06:08:27;;;;;;;;;;;;;;;5.10;100.00;101691.72;5094311;28;20017;-71
2021/04/16 06:10:56;;;;;;;;;;;;;;;5.15;100.00;101698.66;5094410;28;19924;-70
2021/04/16 06:13:21;;;;;;;;;;;;;;;5.13;100.00;101692.47;5091339;28;19925;-71
2021/04/16 06:15:48;;;;;;;;;;;;;;;5.19;100.00;101702.09;5092805;28;19928;-71
2021/04/16 06:18:14;;;;;;;;;;;;;;;5.24;100.00;101699.19;5094162;28;20387;-71
2021/04/16 06:20:40;;;;;;;;;;;;;;;5.23;100.00;101700.16;5094412;28;20298;-70
2021/04/16 06:23:06;;;;;;;;;;;;;;;5.24;100.00;101701.88;5089087;28;20442;-71
2021/04/16 06:25:33;;;;;;;;;;;;;;;5.26;100.00;101710.78;5093267;28;20463;-70
2021/04/16 06:28:00;;;;;;;;;;;;;;;5.33;100.00;101698.78;5076175;28;19939;-71
2021/04/16 06:30:26;;;;;;;;;;;;;;;5.47;100.00;101709.81;5092806;28;19928;-71
2021/04/16 06:33:03;;;;;;;;;;;;;;;5.50;100.00;101701.59;5092378;28;19939;-71
2021/04/16 06:35:29;;;;;;;;;;;;;;;5.64;100.00;101700.16;5094071;28;20071;-70
2021/04/16 06:37:55;;;;;;;;;;;;;;;5.75;100.00;101695.13;5093918;28;20441;-71
2021/04/16 06:40:21;;;;;;;;;;;;;;;5.77;100.00;101701.34;5074949;28;19925;-71
2021/04/16 06:42:47;;;;;;;;;;;;;;;6.01;100.00;101698.47;5093315;28;19924;-71
2021/04/16 06:45:15;;;;;;;;;;;;;;;6.29;100.00;101699.88;5094027;28;19931;-71
2021/04/16 06:47:42;;;;;;;;;;;;;;;6.62;100.00;101704.59;5093669;28;20370;-71
2021/04/16 06:50:10;;;;;;;;;;;;;;;6.50;100.00;101700.66;5093923;28;20005;-71
2021/04/16 06:52:40;;;;;;;;;;;;;;;6.31;100.00;101700.69;5093177;28;20375;-71
2021/04/16 06:55:11;;;;;;;;;;;;;;;6.17;100.00;101704.91;5092856;28;20190;-71
2021/04/16 06:57:40;;;;;;;;;;;;;;;6.17;100.00;101698.63;5092882;28;19947;-71
2021/04/16 07:00:19;;;;;;;;;;;;;;;6.00;100.00;101694.91;5093002;28;20220;-71
2021/04/16 07:02:47;;;;;;;;;;;;;;;6.11;100.00;101690.84;5075178;28;19924;-72
2021/04/16 07:05:21;;;;;;;;;;;;;;;6.09;100.00;101698.13;5092840;28;19924;-71
2021/04/16 07:07:48;;;;;;;;;;;;;;;6.21;100.00;101692.13;5093255;28;19924;-72
2021/04/16 07:10:16;;;;;;;;;;;;;;;6.28;100.00;101696.31;5093661;28;19925;-71
2021/04/16 07:12:42;;;;;;;;;;;;;;;6.39;100.00;101690.41;5093411;28;19974;-71
2021/04/16 07:15:09;;;;;;;;;;;;;;;6.73;100.00;101688.72;5093155;28;19924;-70
2021/04/16 07:17:38;;;;;;;;;;;;;;;6.93;100.00;101693.13;5089756;28;19950;-69
2021/04/16 07:20:04;;;;;;;;;;;;;;;6.92;100.00;101694.09;5092831;28;19925;-71
2021/04/16 07:22:38;;;;;;;;;;;;;;;6.87;100.00;101697.00;5091607;28;20010;-72
2021/04/16 07:25:12;;;;;;;;;;;;;;;6.85;100.00;101693.53;5074727;28;19924;-72
2021/04/16 07:27:44;;;;;;;;;;;;;;;6.81;100.00;101697.31;5092625;28;19931;-72
2021/04/16 07:30:25;;;;;;;;;;;;;;;6.78;100.00;101702.88;5073035;28;19931;-72
2021/04/16 07:32:51;;;;;;;;;;;;;;;6.68;100.00;101696.16;5072696;28;20007;-72
2021/04/16 07:35:19;;;;;;;;;;;;;;;6.60;100.00;101701.97;5092193;28;20405;-72
2021/04/16 07:37:47;;;;;;;;;;;;;;;6.53;100.00;101703.19;5092971;28;19931;-72
2021/04/16 07:40:14;;;;;;;;;;;;;;;6.40;100.00;101708.34;5074920;28;20006;-71
2021/04/16 07:42:41;;;;;;;;;;;;;;;6.46;100.00;101708.03;5092576;28;19931;-71
2021/04/16 07:45:19;;;;;;;;;;;;;;;6.59;100.00;101700.22;5092321;28;19947;-71
2021/04/16 07:47:45;;;;;;;;;;;;;;;6.64;100.00;101703.56;5092631;28;19924;-71
2021/04/16 07:50:12;;;;;;;;;;;;;;;6.59;100.00;101696.63;5092503;28;20402;-71
2021/04/16 07:52:39;;;;;;;;;;;;;;;6.69;100.00;101695.22;5092350;28;20437;-71
2021/04/16 07:55:18;;;;;;;;;;;;;;;6.82;100.00;101700.91;5092439;28;20307;-71
2021/04/16 07:57:45;;;;;;;;;;;;;;;7.00;100.00;101708.09;5091988;28;19955;-70
2021/04/16 08:00:23;;;;;;;;;;;;;;;7.12;100.00;101701.19;5091854;28;20361;-71
2021/04/16 08:02:51;;;;;;;;;;;;;;;7.23;100.00;101710.53;5091890;28;20383;-71
2021/04/16 08:05:27;;;;;;;;;;;;;;;7.25;100.00;101705.94;5091985;28;20422;-71
2021/04/16 08:08:05;;;;;;;;;;;;;;;7.31;100.00;101705.59;5091798;28;19928;-71
2021/04/16 08:10:32;;;;;;;;;;;;;;;7.28;100.00;101716.59;5091315;28;19932;-71
2021/04/16 08:13:05;;;;;;;;;;;;;;;7.25;100.00;101714.91;5092220;28;19931;-71
2021/04/16 08:15:30;;;;;;;;;;;;;;;7.19;100.00;101716.09;5090891;28;19981;-71
2021/04/16 08:18:06;;;;;;;;;;;;;;;7.14;100.00;101720.88;5089808;28;19928;-71
2021/04/16 08:20:35;;;;;;;;;;;;;;;7.10;100.00;101715.72;5091394;28;19928;-71
2021/04/16 08:23:03;;;;;;;;;;;;;;;7.10;100.00;101713.00;5092051;28;19924;-71
2021/04/16 08:25:34;;;;;;;;;;;;;;;7.13;100.00;101707.44;5091193;28;20689;-71
2021/04/16 08:28:03;;;;;;;;;;;;;;;7.22;100.00;101708.81;5091413;28;19924;-71
2021/04/16 08:30:37;;;;;;;;;;;;;;;7.36;100.00;101714.34;5073623;28;19924;-71
2021/04/16 08:33:06;;;;;;;;;;;;;;;7.49;100.00;101701.09;5092314;28;19924;-71
2021/04/16 08:35:36;;;;;;;;;;;;;;;7.67;100.00;101708.22;5091377;28;19981;-71
2021/04/16 08:38:04;;;;;;;;;;;;;;;7.69;100.00;101705.44;5092588;28;20392;-71
2021/04/16 08:40:32;;;;;;;;;;;;;;;7.82;100.00;101702.94;5092640;28;20545;-71
2021/04/16 08:42:59;;;;;;;;;;;;;;;7.97;100.00;101698.53;5091808;28;19924;-70
2021/04/16 08:45:26;;;;;;;;;;;;;;;8.08;100.00;101704.22;5091304;28;19924;-72
2021/04/16 08:47:54;;;;;;;;;;;;;;;8.18;100.00;101694.63;5094068;28;19963;-71
2021/04/16 08:50:22;;;;;;;;;;;;;;;8.06;100.00;101695.31;5078212;28;19924;-71
2021/04/16 08:52:51;;;;;;;;;;;;;;;8.08;100.00;101700.63;5100013;28;19928;-71
2021/04/16 08:55:21;;;;;;;;;;;;;;;7.94;100.00;101704.13;5095137;28;20352;-71
2021/04/16 08:57:51;;;;;;;;;;;;;;;8.13;100.00;101698.56;5091931;28;19924;-72
2021/04/16 09:00:20;;;;;;;;;;;;;;;8.33;100.00;101700.16;5091284;28;19977;-72
2021/04/16 09:02:48;;;;;;;;;;;;;;;8.65;100.00;101700.19;5091304;28;19931;-71
2021/04/16 09:05:16;;;;;;;;;;;;;;;8.74;100.00;101696.94;5090862;28;19928;-71
2021/04/16 09:07:43;;;;;;;;;;;;;;;8.65;100.00;101701.03;5090844;28;19931;-72
2021/04/16 09:10:24;;;;;;;;;;;;;;;8.56;100.00;101689.88;5090852;28;19924;-73
2021/04/16 09:12:51;;;;;;;;;;;;;;;8.47;100.00;101693.97;5077880;28;19931;-72
2021/04/16 09:15:39;;;;;;;;;;;;;;;8.61;100.00;101694.06;5090527;28;19924;-72
2021/04/16 09:18:06;;;;;;;;;;;;;;;8.73;100.00;101702.47;5091119;28;19924;-72
2021/04/16 09:20:47;;;;;;;;;;;;;;;8.85;100.00;101693.59;5087495;28;19928;-71
2021/04/16 09:23:18;;;;;;;;;;;;;;;9.08;100.00;101694.94;5079555;28;19924;-71
2021/04/16 09:25:46;;;;;;;;;;;;;;;8.84;100.00;101689.16;5072710;28;20440;-71
2021/04/16 09:28:42;;;;;;;;;;;;;;;8.78;100.00;101686.78;5090895;28;19963;-71
2021/04/16 09:31:22;;;;;;;;;;;;;;;9.13;100.00;101695.56;5072787;28;19924;-71
2021/04/16 09:34:04;;;;;;;;;;;;;;;9.46;100.00;101694.47;5071985;28;19931;-71
2021/04/16 09:36:44;;;;;;;;;;;;;;;9.69;100.00;101690.34;5091120;28;19924;-71
2021/04/16 09:39:13;;;;;;;;;;;;;;;9.83;100.00;101691.31;5090521;28;19975;-70
2021/04/16 09:41:40;;;;;;;;;;;;;;;9.95;100.00;101687.81;5072303;28;19935;-70
2021/04/16 09:44:25;;;;;;;;;;;;;;;10.05;98.06;101688.13;5090737;28;19931;-71
2021/04/16 09:46:50;;;;;;;;;;;;;;;9.97;94.56;101685.91;5072590;28;19932;-71
2021/04/16 09:49:31;;;;;;;;;;;;;;;10.14;97.90;101686.66;5090858;28;19967;-71
2021/04/16 09:51:58;;;;;;;;;;;;;;;9.92;93.84;101677.19;5087710;28;19928;-71
2021/04/16 09:54:35;;;;;;;;;;;;;;;9.95;94.55;101681.53;5084087;28;20251;-71
2021/04/16 09:57:19;;;;;;;;;;;;;;;9.96;94.02;101686.00;5089577;28;20037;-71
2021/04/16 09:59:46;;;;;;;;;;;;;;;10.00;92.20;101682.97;5084934;28;19924;-71
2021/04/16 10:02:19;;;;;;;;;;;;;;;9.78;93.44;101685.31;5090361;28;19954;-71
2021/04/16 10:04:50;;;;;;;;;;;;;;;9.92;93.70;101690.75;5090190;28;20006;-71
2021/04/16 10:07:18;;;;;;;;;;;;;;;10.05;93.77;101680.84;5090282;28;19931;-71
2021/04/16 10:09:44;;;;;;;;;;;;;;;10.24;95.88;101690.53;5089965;28;19927;-71
2021/04/16 10:12:12;;;;;;;;;;;;;;;10.36;93.56;101691.63;5090386;28;19982;-72
2021/04/16 10:14:39;;;;;;;;;;;;;;;10.43;91.21;101681.22;5089969;28;19931;-70
2021/04/16 10:17:07;;;;;;;;;;;;;;;10.50;85.43;101678.00;5089772;28;19935;-70
2021/04/16 10:19:34;;;;;;;;;;;;;;;10.91;84.04;101676.22;5089904;28;20032;-69
2021/04/16 10:22:12;;;;;;;;;;;;;;;11.39;85.00;101672.94;5090121;28;19924;-70
2021/04/16 12:38:58;;;;;;;;;;;;;;;17.10;39.23;101599.97;5091726;28;19923;-70
2021/04/16 12:41:25;;;;;;;;;;;;;;;16.36;38.53;101606.84;5073378;28;20244;-71
2021/04/16 12:43:52;;;;;;;;;;;;;;;15.61;37.91;101603.53;5090829;28;19924;-70
2021/04/16 12:46:19;;;;;;;;;;;;;;;15.63;38.62;101607.84;5090941;28;19924;-71
2021/04/16 12:48:45;;;;;;;;;;;;;;;16.28;41.23;101617.66;5091160;28;20391;-70
2021/04/16 12:51:12;;;;;;;;;;;;;;;16.29;39.92;101616.63;5091024;28;20044;-70
2021/04/16 12:53:38;;;;;;;;;;;;;;;15.72;38.72;101614.38;5091075;28;19971;-70
2021/04/16 12:56:05;;;;;;;;;;;;;;;16.12;38.76;101601.75;5090855;28;19946;-69
2021/04/16 12:58:33;;;;;;;;;;;;;;;16.10;38.14;101607.38;5091374;28;19924;-70
2021/04/16 13:01:01;;;;;;;;;;;;;;;15.65;40.08;101594.06;5090615;28;20362;-69
2021/04/16 13:03:30;;;;;;;;;;;;;;;15.82;38.49;101592.53;5090199;28;19981;-70
2021/04/16 13:05:56;;;;;;;;;;;;;;;16.49;37.04;101580.03;5090405;28;19974;-70
2021/04/16 13:08:22;;;;;;;;;;;;;;;16.48;38.05;101583.78;5090349;28;20299;-70
2021/04/16 13:10:48;;;;;;;;;;;;;;;15.55;36.49;101580.28;5091545;28;19924;-70
2021/04/16 13:13:14;;;;;;;;;;;;;;;16.28;38.04;101588.38;5091254;28;19924;-70
2021/04/16 13:15:40;;;;;;;;;;;;;;;16.57;37.88;101580.19;5091108;28;19924;-70
2021/04/16 13:18:10;;;;;;;;;;;;;;;16.04;36.61;101580.53;5091256;28;19931;-70
2021/04/16 13:20:36;;;;;;;;;;;;;;;15.79;39.64;101579.97;5090897;28;20438;-70
2021/04/16 13:23:02;;;;;;;;;;;;;;;15.55;38.82;101567.50;5091012;28;19935;-70
2021/04/16 13:25:30;;;;;;;;;;;;;;;15.64;38.34;101576.75;5090808;28;19969;-70
2021/04/16 13:27:55;;;;;;;;;;;;;;;15.66;38.62;101576.59;5090648;28;19924;-70
2021/04/16 13:30:23;;;;;;;;;;;;;;;14.65;38.94;101577.13;5090650;28;19958;-70
2021/04/16 13:32:51;;;;;;;;;;;;;;;15.26;41.82;101569.19;5072482;28;19924;-69
2021/04/16 13:35:18;;;;;;;;;;;;;;;15.50;38.63;101566.16;5090535;28;19970;-70
2021/04/16 13:37:44;;;;;;;;;;;;;;;15.79;39.18;101571.75;5090772;28;19968;-70
2021/04/16 13:40:11;;;;;;;;;;;;;;;15.70;35.97;101567.09;5090439;28;20379;-70
2021/04/16 13:42:37;;;;;;;;;;;;;;;16.03;37.42;101562.38;5090895;28;19928;-70
2021/04/16 13:45:04;;;;;;;;;;;;;;;16.62;35.76;101556.97;5091021;28;20390;-70
2021/04/16 13:47:31;;;;;;;;;;;;;;;16.96;36.08;101551.91;5090500;28;20403;-70
2021/04/16 13:49:57;;;;;;;;;;;;;;;17.33;38.02;101559.34;5090663;28;20375;-70
2021/04/16 13:52:23;;;;;;;;;;;;;;;17.46;35.63;101566.38;5090187;28;20299;-70
2021/04/16 13:54:49;;;;;;;;;;;;;;;16.85;36.38;101557.50;5090597;28;19927;-70
2021/04/16 13:57:17;;;;;;;;;;;;;;;16.70;37.35;101562.56;5090532;28;20451;-70
2021/04/16 13:59:44;;;;;;;;;;;;;;;16.14;36.11;101554.03;5090662;28;19977;-70
2021/04/16 14:02:11;;;;;;;;;;;;;;;15.70;36.25;101562.53;5090576;28;19924;-71
2021/04/16 14:04:40;;;;;;;;;;;;;;;15.16;35.96;101564.53;5088088;28;19981;-69
2021/04/16 14:07:07;;;;;;;;;;;;;;;15.63;35.75;101557.72;5068704;28;19932;-69
2021/04/16 14:09:33;;;;;;;;;;;;;;;15.35;37.18;101551.97;5093853;28;20403;-70
2021/04/16 14:11:59;;;;;;;;;;;;;;;15.23;36.96;101548.44;5094335;28;19958;-69
2021/04/16 14:14:26;;;;;;;;;;;;;;;15.37;36.93;101541.78;5094085;28;19947;-69
2021/04/16 14:16:57;;;;;;;;;;;;;;;15.99;38.73;101552.69;5094496;28;19993;-69
2021/04/16 14:19:25;;;;;;;;;;;;;;;15.82;38.30;101555.09;5094610;28;19928;-69
2021/04/16 14:21:53;;;;;;;;;;;;;;;15.93;40.44;101558.72;5093891;28;20268;-69
2021/04/16 14:24:18;;;;;;;;;;;;;;;16.02;40.06;101550.56;5093698;28;19931;-68
2021/04/16 14:26:45;;;;;;;;;;;;;;;16.59;38.01;101546.28;5094367;28;20018;-69
2021/04/16 14:29:11;;;;;;;;;;;;;;;16.45;37.02;101544.81;5093931;28;20197;-69
2021/04/16 14:31:38;;;;;;;;;;;;;;;16.29;37.03;101561.81;5094108;28;19974;-70
2021/04/16 14:34:04;;;;;;;;;;;;;;;15.32;37.67;101561.31;5076545;28;19924;-69
2021/04/16 14:36:30;;;;;;;;;;;;;;;15.53;38.50;101558.56;5093864;28;20406;-70
2021/04/16 14:38:56;;;;;;;;;;;;;;;15.77;36.49;101554.63;5094615;28;19924;-69
2021/04/16 14:41:25;;;;;;;;;;;;;;;16.12;36.07;101541.50;5093991;28;19928;-69
2021/04/16 14:43:52;;;;;;;;;;;;;;;16.12;36.29;101557.94;5094230;28;19932;-69
2021/04/16 14:46:17;;;;;;;;;;;;;;;15.88;35.91;101550.94;5093812;28;20338;-69
2021/04/16 14:48:43;;;;;;;;;;;;;;;16.32;36.38;101554.19;5093654;28;19924;-69
2021/04/16 14:51:10;;;;;;;;;;;;;;;15.11;37.05;101555.88;5094054;28;19925;-69
2021/04/16 14:53:38;;;;;;;;;;;;;;;14.63;39.96;101564.53;5092122;28;19963;-69
2021/04/16 14:56:06;;;;;;;;;;;;;;;14.65;40.43;101562.59;5093660;28;19959;-69